createdAt,value
2019-04-11T00:01:14.227Z,10.90
2019-04-11T00:03:44.198Z,10.90
2019-04-11T00:06:15.088Z,10.90
2019-04-11T00:08:45.963Z,10.90
2019-04-11T00:11:15.989Z,10.90
2019-04-11T00:13:45.843Z,11.00
2019-04-11T00:16:15.787Z,11.00
2019-04-11T00:18:47.048Z,11.00
2019-04-11T00:21:17.116Z,10.90
2019-04-11T00:23:48.229Z,10.90
2019-04-11T00:26:18.301Z,10.80
2019-04-11T00:28:48.157Z,10.80
2019-04-11T00:31:20.898Z,10.90
2019-04-11T00:34:10.857Z,10.90
2019-04-11T00:36:41.188Z,10.90
2019-04-11T00:39:13.243Z,11.00
2019-04-11T00:42:02.184Z,10.90
2019-04-11T00:44:32.766Z,10.90
2019-04-11T00:47:02.781Z,10.90
2019-04-11T00:49:35.132Z,10.90
2019-04-11T00:52:05.012Z,10.80
2019-04-11T00:54:35.261Z,10.90
2019-04-11T00:57:06.466Z,10.90
2019-04-11T00:59:36.494Z,10.80
2019-04-11T01:02:07.299Z,10.80
2019-04-11T01:04:37.455Z,10.80
2019-04-11T01:07:07.343Z,10.70
2019-04-11T01:09:37.212Z,10.60
2019-04-11T01:12:08.067Z,10.60
2019-04-11T01:14:38.635Z,10.60
2019-04-11T01:17:09.442Z,10.60
2019-04-11T01:19:40.597Z,10.50
2019-04-11T01:22:10.782Z,10.50
2019-04-11T01:24:41.947Z,10.60
2019-04-11T01:27:13.904Z,10.60
2019-04-11T01:29:44.030Z,10.50
2019-04-11T01:32:14.039Z,10.50
2019-04-11T01:34:46.643Z,10.50
2019-04-11T01:37:17.637Z,10.50
2019-04-11T01:39:52.130Z,10.40
2019-04-11T01:42:22.823Z,10.40
2019-04-11T01:44:52.812Z,10.50
2019-04-11T01:47:57.430Z,10.50
2019-04-11T01:50:30.801Z,10.50
2019-04-11T01:53:00.757Z,10.50
2019-04-11T01:55:30.630Z,10.50
2019-04-11T01:58:00.604Z,10.60
2019-04-11T02:00:50.994Z,10.60
2019-04-11T02:03:27.274Z,10.60
2019-04-11T02:05:57.301Z,10.60
2019-04-11T02:08:27.261Z,10.60
2019-04-11T02:10:57.231Z,10.60
2019-04-11T02:13:27.970Z,10.60
2019-04-11T02:15:58.851Z,10.50
2019-04-11T02:18:29.749Z,10.50
2019-04-11T02:20:59.620Z,10.60
2019-04-11T02:23:49.376Z,10.60
2019-04-11T02:26:25.076Z,10.60
2019-04-11T02:28:55.271Z,10.60
2019-04-11T02:31:26.349Z,10.60
2019-04-11T02:33:57.329Z,10.70
2019-04-11T02:36:29.562Z,10.60
2019-04-11T02:39:04.028Z,10.60
2019-04-11T02:41:32.002Z,10.60
2019-04-11T02:44:03.601Z,10.50
2019-04-11T02:46:42.634Z,10.40
2019-04-11T02:49:07.973Z,10.40
2019-04-11T02:51:38.819Z,10.50
2019-04-11T02:54:11.394Z,10.50
2019-04-11T02:56:43.589Z,10.50
2019-04-11T02:59:13.543Z,10.40
2019-04-11T03:01:44.114Z,10.50
2019-04-11T03:04:14.824Z,10.40
2019-04-11T03:06:47.770Z,10.20
2019-04-11T03:09:18.126Z,10.10
2019-04-11T03:11:49.802Z,10.10
2019-04-11T03:14:20.798Z,10.10
2019-04-11T03:17:04.206Z,10.10
2019-04-11T03:19:40.874Z,10.10
2019-04-11T03:21:57.233Z,10.10
2019-04-11T03:24:29.487Z,10.10
2019-04-11T03:27:04.082Z,10.20
2019-04-11T03:29:33.819Z,10.20
2019-04-11T03:32:37.248Z,10.20
2019-04-11T03:35:22.525Z,10.20
2019-04-11T03:37:39.246Z,10.30
2019-04-11T03:39:59.279Z,10.30
2019-04-11T03:42:28.587Z,10.30
2019-04-11T03:44:48.012Z,10.20
2019-04-11T03:47:31.801Z,10.20
2019-04-11T03:49:53.148Z,10.20
2019-04-11T03:52:20.937Z,10.20
2019-04-11T03:54:51.343Z,10.20
2019-04-11T03:57:21.586Z,10.20
2019-04-11T03:59:52.148Z,10.10
2019-04-11T04:02:22.577Z,10.20
2019-04-11T04:04:54.281Z,10.20
2019-04-11T04:07:24.367Z,10.20
2019-04-11T04:09:54.571Z,10.20
2019-04-11T04:12:24.794Z,10.10
2019-04-11T04:15:35.876Z,10.10
2019-04-11T04:18:16.652Z,10.10
2019-04-11T04:21:09.147Z,10.10
2019-04-11T04:23:43.273Z,10.10
2019-04-11T04:26:14.763Z,10.00
2019-04-11T04:28:45.234Z,10.00
2019-04-11T04:31:16.291Z,10.00
2019-04-11T04:33:47.643Z,10.00
2019-04-11T04:36:18.508Z,10.00
2019-04-11T04:38:49.394Z,10.00
2019-04-11T04:41:30.800Z,10.10
2019-04-11T04:43:52.772Z,10.10
2019-04-11T04:46:39.636Z,10.00
2019-04-11T04:48:56.427Z,9.90
2019-04-11T04:51:26.804Z,10.00
2019-04-11T04:53:57.972Z,10.00
2019-04-11T04:56:31.539Z,10.00
2019-04-11T04:58:59.951Z,10.00
2019-04-11T05:01:31.550Z,10.00
2019-04-11T05:04:02.241Z,10.00
2019-04-11T05:06:32.429Z,10.00
2019-04-11T05:09:02.283Z,10.00
2019-04-11T05:11:33.843Z,10.00
2019-04-11T05:14:05.055Z,10.00
2019-04-11T05:16:35.787Z,10.00
2019-04-11T05:19:06.587Z,10.00
2019-04-11T05:21:37.186Z,9.90
2019-04-11T05:24:07.287Z,10.00
2019-04-11T05:26:37.547Z,10.00
2019-04-11T05:29:07.528Z,10.00
2019-04-11T05:31:38.625Z,10.00
2019-04-11T05:34:09.870Z,10.00
2019-04-11T05:36:40.878Z,10.00
2019-04-11T05:39:11.198Z,10.00
2019-04-11T05:41:44.018Z,10.00
2019-04-11T05:44:14.607Z,10.00
2019-04-11T05:46:54.916Z,9.90
2019-04-11T05:49:24.449Z,10.00
2019-04-11T05:52:01.921Z,10.00
2019-04-11T05:54:41.185Z,10.00
2019-04-11T05:57:11.279Z,10.00
2019-04-11T05:59:43.328Z,10.00
2019-04-11T06:02:24.826Z,10.10
2019-04-11T06:05:02.731Z,10.10
2019-04-11T06:07:44.699Z,10.10
2019-04-11T06:10:18.562Z,10.10
2019-04-11T06:13:16.815Z,10.10
2019-04-11T06:15:49.622Z,10.10
2019-04-11T06:18:43.159Z,10.00
2019-04-11T06:21:29.388Z,10.10
2019-04-11T06:24:30.716Z,10.00
2019-04-11T06:27:15.782Z,10.00
2019-04-11T06:29:57.514Z,10.00
2019-04-11T06:32:45.843Z,9.90
2019-04-11T06:36:13.784Z,10.00
2019-04-11T06:38:49.159Z,10.00
2019-04-11T06:41:32.780Z,10.00
2019-04-11T06:44:15.101Z,10.00
2019-04-11T06:47:03.788Z,10.00
2019-04-11T06:49:44.664Z,9.90
2019-04-11T06:52:14.935Z,9.90
2019-04-11T06:55:28.843Z,9.90
2019-04-11T06:58:07.199Z,10.00
2019-04-11T07:00:39.110Z,9.90
2019-04-11T07:03:19.850Z,9.90
2019-04-11T07:05:41.261Z,9.90
2019-04-11T07:08:11.703Z,10.00
2019-04-11T07:10:47.380Z,10.00
2019-04-11T07:13:22.716Z,10.00
2019-04-11T07:15:56.817Z,10.10
2019-04-11T07:18:59.026Z,10.10
2019-04-11T07:21:35.319Z,10.10
2019-04-11T07:24:24.559Z,10.20
2019-04-11T07:27:07.464Z,10.20
2019-04-11T07:30:03.131Z,10.10
2019-04-11T07:32:34.273Z,10.20
2019-04-11T07:35:27.668Z,10.10
2019-04-11T07:37:58.566Z,10.10
2019-04-11T07:40:47.543Z,10.10
2019-04-11T07:43:31.168Z,10.20
2019-04-11T07:46:25.263Z,10.20
2019-04-11T07:49:06.128Z,10.20
2019-04-11T07:51:43.017Z,10.30
2019-04-11T07:54:18.205Z,10.30
2019-04-11T07:57:08.391Z,10.20
2019-04-11T08:00:03.884Z,10.20
2019-04-11T08:02:53.143Z,10.20
2019-04-11T08:05:58.501Z,10.30
2019-04-11T08:08:49.366Z,10.30
2019-04-11T08:11:30.347Z,10.40
2019-04-11T08:14:24.715Z,10.40
2019-04-11T08:17:07.121Z,10.40
2019-04-11T08:19:59.594Z,10.40
2019-04-11T08:22:33.483Z,10.40
2019-04-11T08:25:25.200Z,10.40
2019-04-11T08:28:02.182Z,10.40
2019-04-11T08:30:34.995Z,10.50
2019-04-11T08:33:07.444Z,10.70
2019-04-11T08:35:58.287Z,10.70
2019-04-11T08:38:34.253Z,10.80
2019-04-11T08:41:34.050Z,10.90
2019-04-11T08:44:09.835Z,11.00
2019-04-11T08:47:04.305Z,11.10
2019-04-11T08:49:41.892Z,11.10
2019-04-11T08:52:38.232Z,11.20
2019-04-11T08:55:14.612Z,11.30
2019-04-11T08:57:47.734Z,11.40
2019-04-11T09:00:46.825Z,11.50
2019-04-11T09:03:21.782Z,11.40
2019-04-11T09:06:06.189Z,11.30
2019-04-11T09:08:59.693Z,11.40
2019-04-11T09:11:49.401Z,11.40
2019-04-11T09:14:44.571Z,11.30
2019-04-11T09:17:26.720Z,11.50
2019-04-11T09:20:35.846Z,11.40
2019-04-11T09:23:25.966Z,11.40
2019-04-11T09:26:14.008Z,11.40
2019-04-11T09:28:49.584Z,11.40
2019-04-11T09:31:41.906Z,11.40
2019-04-11T09:34:44.228Z,11.40
2019-04-11T09:37:30.055Z,11.30
2019-04-11T09:40:26.101Z,11.40
2019-04-11T09:43:22.180Z,11.50
2019-04-11T09:46:14.627Z,11.60
2019-04-11T09:49:10.817Z,11.60
2019-04-11T09:51:49.873Z,11.50
2019-04-11T09:54:28.575Z,11.50
2019-04-11T09:57:20.619Z,11.50
2019-04-11T10:00:10.175Z,11.50
2019-04-11T10:02:50.547Z,11.40
2019-04-11T10:05:24.956Z,11.40
2019-04-11T10:08:17.001Z,11.30
2019-04-11T10:11:26.040Z,11.20
2019-04-11T10:14:15.556Z,11.30
2019-04-11T10:17:04.438Z,11.50
2019-04-11T10:19:52.235Z,11.40
2019-04-11T10:22:43.993Z,11.70
2019-04-11T10:25:19.099Z,11.90
2019-04-11T10:28:24.969Z,11.90
2019-04-11T10:31:12.668Z,12.00
2019-04-11T10:34:01.605Z,12.10
2019-04-11T10:36:39.036Z,12.10
2019-04-11T10:39:33.316Z,12.00
2019-04-11T10:42:08.495Z,12.00
2019-04-11T10:45:10.519Z,11.90
2019-04-11T10:47:41.468Z,11.90
2019-04-11T10:50:35.968Z,11.90
2019-04-11T10:53:07.230Z,11.80
2019-04-11T10:55:56.236Z,11.90
2019-04-11T10:58:35.513Z,12.00
2019-04-11T11:01:28.307Z,12.00
2019-04-11T11:04:17.989Z,11.80
2019-04-11T11:06:50.394Z,11.80
2019-04-11T11:09:44.345Z,11.80
2019-04-11T11:12:35.156Z,11.70
2019-04-11T11:15:19.855Z,11.80
2019-04-11T11:18:39.842Z,11.80
2019-04-11T11:20:57.090Z,11.90
2019-04-11T11:23:49.214Z,11.90
2019-04-11T11:26:24.241Z,11.80
2019-04-11T11:29:15.276Z,11.70
2019-04-11T11:32:05.156Z,11.60
2019-04-11T11:34:42.276Z,11.60
2019-04-11T11:37:37.517Z,11.60
2019-04-11T11:40:38.464Z,11.60
2019-04-11T11:43:27.814Z,11.60
2019-04-11T11:46:36.239Z,11.60
2019-04-11T11:49:12.192Z,11.60
2019-04-11T11:52:11.265Z,11.60
2019-04-11T11:54:46.065Z,11.70
2019-04-11T11:57:26.652Z,11.80
2019-04-11T12:00:23.309Z,11.60
2019-04-11T12:03:09.010Z,11.70
2019-04-11T12:05:46.991Z,11.80
2019-04-11T12:08:39.103Z,11.80
2019-04-11T12:11:12.015Z,11.90
2019-04-11T12:14:01.915Z,11.80
2019-04-11T12:17:01.965Z,11.80
2019-04-11T12:19:48.809Z,11.90
2019-04-11T12:22:10.412Z,12.00
2019-04-11T12:25:02.929Z,12.10
2019-04-11T12:27:50.096Z,12.10
2019-04-11T12:30:39.839Z,12.40
2019-04-11T12:33:29.709Z,12.50
2019-04-11T12:36:08.091Z,12.60
2019-04-11T12:38:55.588Z,12.70
2019-04-11T12:41:43.547Z,12.90
2019-04-11T12:44:33.049Z,12.90
2019-04-11T12:47:15.474Z,12.90
2019-04-11T12:50:04.399Z,13.00
2019-04-11T12:52:40.041Z,12.90
2019-04-11T12:55:13.972Z,12.80
2019-04-11T12:58:01.295Z,12.70
2019-04-11T13:00:53.510Z,12.80
2019-04-11T13:03:41.121Z,12.90
2019-04-11T13:06:19.487Z,12.80
2019-04-11T13:09:26.843Z,12.90
2019-04-11T13:11:57.348Z,12.90
2019-04-11T13:14:40.732Z,12.80
2019-04-11T13:17:14.103Z,12.80
2019-04-11T13:20:04.217Z,12.90
2019-04-11T13:22:27.063Z,12.90
2019-04-11T13:25:18.899Z,12.90
2019-04-11T13:27:54.641Z,12.70
2019-04-11T13:30:43.651Z,12.60
2019-04-11T13:33:16.836Z,12.50
2019-04-11T13:36:06.062Z,12.40
2019-04-11T13:38:39.537Z,12.30
2019-04-11T13:41:20.088Z,12.30
2019-04-11T13:44:09.931Z,12.30
2019-04-11T13:46:59.157Z,12.40
2019-04-11T13:49:41.691Z,12.60
2019-04-11T13:52:30.956Z,12.70
2019-04-11T13:55:32.816Z,12.80
2019-04-11T13:58:52.868Z,13.00
2019-04-11T14:01:22.807Z,13.20
2019-04-11T14:04:11.566Z,13.10
2019-04-11T14:06:42.212Z,13.10
2019-04-11T14:09:36.857Z,13.10
2019-04-11T14:12:12.724Z,13.00
2019-04-11T14:14:54.300Z,13.00
2019-04-11T14:17:58.372Z,13.00
2019-04-11T14:20:53.072Z,13.10
2019-04-11T14:23:42.138Z,13.30
2019-04-11T14:26:40.489Z,13.40
2019-04-11T14:29:29.289Z,13.50
2019-04-11T14:32:03.106Z,13.50
2019-04-11T14:34:59.913Z,13.50
2019-04-11T14:37:45.460Z,13.50
2019-04-11T14:40:33.140Z,13.20
2019-04-11T14:43:20.502Z,13.40
2019-04-11T14:46:24.387Z,13.40
2019-04-11T14:48:56.881Z,13.50
2019-04-11T14:51:47.228Z,13.70
2019-04-11T14:54:20.034Z,13.80
2019-04-11T14:56:59.409Z,13.90
2019-04-11T14:59:45.424Z,13.90
2019-04-11T15:02:34.900Z,13.80
2019-04-11T15:05:13.851Z,13.70
2019-04-11T15:07:46.088Z,13.70
2019-04-11T15:10:49.490Z,13.40
2019-04-11T15:13:22.743Z,13.40
2019-04-11T15:16:26.797Z,13.20
2019-04-11T15:19:01.367Z,13.30
2019-04-11T15:21:48.908Z,13.50
2019-04-11T15:24:19.857Z,13.60
2019-04-11T15:27:17.936Z,13.60
2019-04-11T15:29:47.824Z,13.70
2019-04-11T15:32:29.288Z,13.70
2019-04-11T15:35:02.625Z,13.70
2019-04-11T15:37:51.757Z,13.60
2019-04-11T15:40:25.193Z,13.70
2019-04-11T15:43:14.004Z,13.50
2019-04-11T15:46:11.853Z,13.50
2019-04-11T15:49:00.570Z,13.50
2019-04-11T15:51:55.734Z,13.40
2019-04-11T15:54:44.455Z,13.40
2019-04-11T15:57:19.149Z,13.40
2019-04-11T16:00:07.956Z,13.50
2019-04-11T16:02:58.979Z,13.60
2019-04-11T16:05:51.580Z,13.60
2019-04-11T16:08:43.287Z,13.60
2019-04-11T16:11:28.409Z,13.60
2019-04-11T16:14:13.025Z,13.70
2019-04-11T16:17:13.376Z,13.60
2019-04-11T16:20:01.697Z,13.50
2019-04-11T16:23:08.829Z,13.40
2019-04-11T16:25:39.089Z,13.20
2019-04-11T16:28:31.643Z,13.10
2019-04-11T16:31:01.518Z,13.10
2019-04-11T16:33:55.565Z,13.10
2019-04-11T16:36:37.456Z,13.10
2019-04-11T16:39:49.954Z,13.00
2019-04-11T16:42:36.997Z,13.10
2019-04-11T16:45:39.809Z,13.00
2019-04-11T16:48:09.869Z,12.90
2019-04-11T16:50:39.738Z,12.90
2019-04-11T16:53:11.570Z,12.80
2019-04-11T16:55:43.134Z,12.80
2019-04-11T16:58:16.986Z,12.80
2019-04-11T17:00:45.460Z,12.80
2019-04-11T17:03:17.290Z,12.70
2019-04-11T17:05:57.485Z,12.80
2019-04-11T17:08:35.268Z,12.80
2019-04-11T17:11:10.965Z,12.80
2019-04-11T17:13:40.961Z,12.70
2019-04-11T17:16:16.125Z,12.70
2019-04-11T17:18:46.170Z,12.60
2019-04-11T17:21:16.047Z,12.60
2019-04-11T17:23:47.232Z,12.60
2019-04-11T17:26:17.763Z,12.60
2019-04-11T17:28:47.644Z,12.50
2019-04-11T17:31:17.524Z,12.40
2019-04-11T17:33:47.422Z,12.60
2019-04-11T17:36:17.312Z,12.40
2019-04-11T17:38:47.310Z,12.30
2019-04-11T17:41:17.296Z,12.50
2019-04-11T17:43:51.372Z,12.40
2019-04-11T17:46:18.831Z,12.30
2019-04-11T17:48:50.418Z,12.30
2019-04-11T17:51:21.132Z,12.40
2019-04-11T17:53:54.679Z,12.40
2019-04-11T17:56:24.792Z,12.30
2019-04-11T17:58:57.897Z,12.30
2019-04-11T18:01:25.741Z,12.40
2019-04-11T18:03:56.095Z,12.50
2019-04-11T18:06:26.126Z,12.50
2019-04-11T18:08:56.012Z,12.60
2019-04-11T18:11:26.640Z,12.50
2019-04-11T18:14:00.696Z,12.40
2019-04-11T18:16:28.858Z,12.40
2019-04-11T18:18:59.797Z,12.30
2019-04-11T18:21:29.678Z,12.30
2019-04-11T18:23:59.676Z,12.40
2019-04-11T18:26:30.559Z,12.40
2019-04-11T18:29:00.597Z,12.30
2019-04-11T18:31:30.579Z,12.30
2019-04-11T18:34:02.477Z,12.30
2019-04-11T18:36:32.558Z,12.30
2019-04-11T18:39:05.857Z,12.30
2019-04-11T18:41:34.150Z,12.30
2019-04-11T18:44:04.432Z,12.50
2019-04-11T18:46:34.548Z,12.30
2019-04-11T18:49:04.449Z,12.20
2019-04-11T18:51:34.522Z,12.30
2019-04-11T18:54:07.759Z,12.40
2019-04-11T18:56:38.259Z,12.30
2019-04-11T18:59:08.547Z,12.30
2019-04-11T19:01:40.015Z,12.20
2019-04-11T19:04:12.006Z,12.00
2019-04-11T19:06:43.070Z,12.00
2019-04-11T19:09:16.016Z,12.00
2019-04-11T19:11:46.435Z,11.90
2019-04-11T19:14:17.143Z,12.00
2019-04-11T19:16:47.125Z,12.10
2019-04-11T19:19:18.562Z,12.10
2019-04-11T19:21:50.778Z,12.00
2019-04-11T19:24:20.090Z,11.90
2019-04-11T19:26:50.139Z,11.90
2019-04-11T19:29:20.020Z,12.00
2019-04-11T19:31:49.877Z,11.90
2019-04-11T19:34:20.238Z,11.90
2019-04-11T19:36:50.173Z,11.90
2019-04-11T19:39:20.168Z,11.90
2019-04-11T19:41:50.046Z,11.90
2019-04-11T19:44:20.002Z,11.80
2019-04-11T19:46:51.090Z,11.90
2019-04-11T19:49:21.622Z,11.80
2019-04-11T19:51:51.959Z,11.70
2019-04-11T19:54:21.848Z,11.50
2019-04-11T19:57:05.628Z,11.50
2019-04-11T19:59:35.729Z,11.60
2019-04-11T20:02:06.092Z,11.60
2019-04-11T20:04:36.053Z,11.60
2019-04-11T20:07:06.100Z,11.60
2019-04-11T20:09:36.005Z,11.50
2019-04-11T20:12:05.969Z,11.50
2019-04-11T20:14:35.845Z,11.50
2019-04-11T20:17:05.823Z,11.50
2019-04-11T20:19:35.705Z,11.40
2019-04-11T20:22:08.222Z,11.40
2019-04-11T20:24:37.108Z,11.40
2019-04-11T20:27:08.121Z,11.30
2019-04-11T20:29:37.988Z,11.40
2019-04-11T20:32:07.844Z,11.40
2019-04-11T20:34:38.633Z,11.30
2019-04-11T20:37:12.546Z,11.30
2019-04-11T20:39:40.673Z,11.30
2019-04-11T20:42:10.525Z,11.30
2019-04-11T20:44:40.376Z,11.30
2019-04-11T20:47:10.439Z,11.30
2019-04-11T20:49:48.728Z,11.20
2019-04-11T20:52:18.560Z,11.20
2019-04-11T20:54:48.433Z,11.10
2019-04-11T20:57:25.562Z,11.10
2019-04-11T20:59:50.928Z,11.00
2019-04-11T21:02:20.843Z,10.90
2019-04-11T21:04:51.053Z,10.90
2019-04-11T21:07:21.019Z,10.80
2019-04-11T21:09:50.932Z,10.80
2019-04-11T21:12:20.812Z,10.80
2019-04-11T21:14:50.687Z,10.80
2019-04-11T21:17:20.576Z,10.70
2019-04-11T21:19:50.932Z,10.70
2019-04-11T21:22:24.132Z,10.70
2019-04-11T21:24:53.497Z,10.70
2019-04-11T21:27:23.409Z,10.70
2019-04-11T21:29:53.291Z,10.60
2019-04-11T21:32:23.161Z,10.60
2019-04-11T21:34:53.032Z,10.60
2019-04-11T21:37:23.372Z,10.50
2019-04-11T21:39:53.247Z,10.40
2019-04-11T21:42:23.106Z,10.40
2019-04-11T21:44:52.957Z,10.40
2019-04-11T21:47:22.933Z,10.40
2019-04-11T21:49:52.843Z,10.50
2019-04-11T21:52:22.714Z,10.50
2019-04-11T21:54:52.555Z,10.40
2019-04-11T21:57:22.490Z,10.30
2019-04-11T21:59:52.464Z,10.30
2019-04-11T22:02:24.282Z,10.40
2019-04-11T22:04:54.200Z,10.30
2019-04-11T22:07:24.092Z,10.40
2019-04-11T22:09:54.007Z,10.40
2019-04-11T22:12:23.884Z,10.30
2019-04-11T22:14:53.931Z,10.30
2019-04-11T22:17:23.836Z,10.20
2019-04-11T22:19:53.688Z,10.20
2019-04-11T22:22:23.605Z,10.20
2019-04-11T22:24:53.500Z,10.10
2019-04-11T22:27:23.392Z,10.20
2019-04-11T22:29:55.323Z,10.10
2019-04-11T22:32:27.767Z,10.10
2019-04-11T22:34:59.214Z,10.10
2019-04-11T22:37:30.067Z,10.00
2019-04-11T22:40:02.040Z,9.90
2019-04-11T22:42:32.940Z,9.90
2019-04-11T22:45:02.812Z,10.00
2019-04-11T22:47:32.744Z,9.90
2019-04-11T22:50:02.599Z,9.90
2019-04-11T22:52:32.491Z,9.80
2019-04-11T22:55:02.369Z,9.80
2019-04-11T22:57:32.295Z,9.80
2019-04-11T23:00:02.263Z,9.80
2019-04-11T23:02:50.933Z,9.80
2019-04-11T23:05:20.932Z,9.70
2019-04-11T23:07:50.992Z,9.80
2019-04-11T23:10:20.862Z,9.80
2019-04-11T23:12:50.728Z,9.80
2019-04-11T23:15:20.588Z,9.80
2019-04-11T23:17:50.472Z,9.80
2019-04-11T23:20:20.352Z,9.90
2019-04-11T23:22:50.208Z,9.90
2019-04-11T23:25:20.085Z,9.80
2019-04-11T23:27:50.020Z,9.80
2019-04-11T23:30:19.976Z,9.70
2019-04-11T23:32:51.704Z,9.60
2019-04-11T23:35:21.775Z,9.60
2019-04-11T23:37:52.163Z,9.60
2019-04-11T23:40:22.954Z,9.60
2019-04-11T23:42:52.928Z,9.60
2019-04-11T23:45:25.428Z,9.60
2019-04-11T23:47:55.397Z,9.60
2019-04-11T23:50:25.905Z,9.70
2019-04-11T23:52:57.871Z,9.80
2019-04-11T23:55:30.065Z,9.80
2019-04-11T23:58:01.154Z,9.80
